sensor_id;sensor_type;location;lat;lon;timestamp;pressure;altitude;pressure_sealevel;temperature;humidity
12775;BME280;6451;42.630;23.382;2024-03-23T00:55:57;94452.38;;;5.15;100.00
12775;BME280;6451;42.630;23.382;2024-03-23T00:58:24;94459.00;;;5.09;100.00
12775;BME280;6451;42.630;23.382;2024-03-23T01:00:50;94450.72;;;5.05;100.00
12775;BME280;6451;42.630;23.382;2024-03-23T01:03:17;94452.47;;;5.01;100.00
12775;BME280;6451;42.630;23.382;2024-03-23T01:05:44;94422.97;;;4.87;100.00
12775;BME280;6451;42.630;23.382;2024-03-23T01:08:11;94423.38;;;4.81;100.00
12775;BME280;6451;42.630;23.382;2024-03-23T01:10:37;94429.72;;;4.76;100.00
12775;BME280;6451;42.630;23.382;2024-03-23T01:13:06;94402.59;;;4.64;100.00
12775;BME280;6451;42.630;23.382;2024-03-23T01:15:31;94446.97;;;5.06;100.00
12775;BME280;6451;42.630;23.382;2024-03-23T01:17:59;94451.97;;;4.99;99.43
12775;BME280;6451;42.630;23.382;2024-03-23T01:20:25;94447.50;;;4.94;99.80
12775;BME280;6451;42.630;23.382;2024-03-23T01:22:54;94405.75;;;4.66;100.00
12775;BME280;6451;42.630;23.382;2024-03-23T01:25:20;94445.66;;;5.03;100.00
12775;BME280;6451;42.630;23.382;2024-03-23T01:27:48;94435.84;;;4.99;99.62
12775;BME280;6451;42.630;23.382;2024-03-23T01:30:15;94439.09;;;4.87;100.00
12775;BME280;6451;42.630;23.382;2024-03-23T01:32:43;94406.31;;;4.77;100.00
12775;BME280;6451;42.630;23.382;2024-03-23T01:35:09;94440.47;;;4.76;100.00
12775;BME280;6451;42.630;23.382;2024-03-23T01:37:36;94440.03;;;4.60;100.00
12775;BME280;6451;42.630;23.382;2024-03-23T01:40:02;94438.38;;;4.51;100.00
12775;BME280;6451;42.630;23.382;2024-03-23T01:42:32;94414.50;;;4.49;100.00
12775;BME280;6451;42.630;23.382;2024-03-23T01:44:59;94446.06;;;4.66;100.00
12775;BME280;6451;42.630;23.382;2024-03-23T01:47:31;94420.28;;;4.20;100.00
12775;BME280;6451;42.630;23.382;2024-03-23T01:49:58;94440.13;;;4.33;100.00
12775;BME280;6451;42.630;23.382;2024-03-23T01:52:25;94380.34;;;4.05;100.00
12775;BME280;6451;42.630;23.382;2024-03-23T01:54:52;94451.19;;;4.31;100.00
12775;BME280;6451;42.630;23.382;2024-03-23T01:57:20;94446.06;;;4.43;100.00
12775;BME280;6451;42.630;23.382;2024-03-23T01:59:47;94445.56;;;4.41;100.00
12775;BME280;6451;42.630;23.382;2024-03-23T02:02:14;94410.31;;;4.21;100.00
12775;BME280;6451;42.630;23.382;2024-03-23T02:04:46;94429.50;;;4.28;100.00
12775;BME280;6451;42.630;23.382;2024-03-23T02:07:13;94413.94;;;4.16;100.00
12775;BME280;6451;42.630;23.382;2024-03-23T02:09:39;94446.31;;;4.33;100.00
12775;BME280;6451;42.630;23.382;2024-03-23T02:12:07;94424.06;;;4.19;100.00
12775;BME280;6451;42.630;23.382;2024-03-23T02:14:35;94459.50;;;4.43;100.00
12775;BME280;6451;42.630;23.382;2024-03-23T02:17:02;94453.94;;;4.40;100.00
12775;BME280;6451;42.630;23.382;2024-03-23T02:19:30;94376.06;;;3.81;100.00
12775;BME280;6451;42.630;23.382;2024-03-23T02:21:59;94452.78;;;4.32;100.00
12775;BME280;6451;42.630;23.382;2024-03-23T02:24:26;94440.53;;;4.04;100.00
12775;BME280;6451;42.630;23.382;2024-03-23T02:26:53;94456.41;;;4.14;100.00
12775;BME280;6451;42.630;23.382;2024-03-23T02:29:19;94455.59;;;4.13;100.00
12775;BME280;6451;42.630;23.382;2024-03-23T02:31:49;94454.94;;;4.08;100.00
12775;BME280;6451;42.630;23.382;2024-03-23T02:34:15;94433.78;;;3.93;100.00
12775;BME280;6451;42.630;23.382;2024-03-23T02:36:42;94423.78;;;3.84;100.00
12775;BME280;6451;42.630;23.382;2024-03-23T02:39:11;94454.63;;;4.09;100.00
12775;BME280;6451;42.630;23.382;2024-03-23T02:41:43;94453.72;;;4.14;100.00
12775;BME280;6451;42.630;23.382;2024-03-23T02:44:10;94439.16;;;3.93;100.00
12775;BME280;6451;42.630;23.382;2024-03-23T02:46:38;94377.47;;;3.65;100.00
12775;BME280;6451;42.630;23.382;2024-03-23T02:49:06;94451.94;;;4.09;100.00
12775;BME280;6451;42.630;23.382;2024-03-23T02:51:34;94451.34;;;4.12;100.00
12775;BME280;6451;42.630;23.382;2024-03-23T02:54:00;94449.75;;;4.11;100.00
12775;BME280;6451;42.630;23.382;2024-03-23T02:56:27;94450.06;;;4.10;100.00
12775;BME280;6451;42.630;23.382;2024-03-23T02:58:54;94390.97;;;3.74;100.00
12775;BME280;6451;42.630;23.382;2024-03-23T03:01:23;94351.47;;;3.52;100.00
12775;BME280;6451;42.630;23.382;2024-03-23T03:03:50;94418.97;;;3.95;100.00
12775;BME280;6451;42.630;23.382;2024-03-23T03:06:23;94446.75;;;4.13;100.00
12775;BME280;6451;42.630;23.382;2024-03-23T03:08:50;94418.97;;;3.95;100.00
12775;BME280;6451;42.630;23.382;2024-03-23T03:11:18;94438.69;;;4.13;100.00
12775;BME280;6451;42.630;23.382;2024-03-23T03:13:45;94437.31;;;4.15;100.00
12775;BME280;6451;42.630;23.382;2024-03-23T03:16:14;94404.41;;;3.74;100.00
12775;BME280;6451;42.630;23.382;2024-03-23T03:18:40;94389.41;;;3.73;99.92
12775;BME280;6451;42.630;23.382;2024-03-23T03:21:07;94448.13;;;4.24;99.27
12775;BME280;6451;42.630;23.382;2024-03-23T03:23:36;94436.25;;;4.03;99.16
12775;BME280;6451;42.630;23.382;2024-03-23T03:26:04;94420.63;;;4.05;100.00
12775;BME280;6451;42.630;23.382;2024-03-23T03:28:30;94385.78;;;3.91;98.75
12775;BME280;6451;42.630;23.382;2024-03-23T03:31:00;94354.63;;;3.68;97.28
12775;BME280;6451;42.630;23.382;2024-03-23T03:33:30;94396.69;;;3.95;96.22
12775;BME280;6451;42.630;23.382;2024-03-23T03:35:57;94433.84;;;4.15;94.99
12775;BME280;6451;42.630;23.382;2024-03-23T03:38:26;94424.31;;;4.09;94.31
12775;BME280;6451;42.630;23.382;2024-03-23T03:40:52;94388.75;;;3.89;94.54
12775;BME280;6451;42.630;23.382;2024-03-23T03:43:19;94377.53;;;3.87;95.62
12775;BME280;6451;42.630;23.382;2024-03-23T03:45:51;94392.53;;;3.88;95.97
12775;BME280;6451;42.630;23.382;2024-03-23T03:48:19;94452.28;;;4.30;94.77
12775;BME280;6451;42.630;23.382;2024-03-23T03:50:47;94295.72;;;3.13;97.52
12775;BME280;6451;42.630;23.382;2024-03-23T03:53:13;94446.81;;;4.22;99.15
12775;BME280;6451;42.630;23.382;2024-03-23T03:55:41;94449.09;;;4.28;100.00
12775;BME280;6451;42.630;23.382;2024-03-23T03:58:08;94405.78;;;3.85;100.00
12775;BME280;6451;42.630;23.382;2024-03-23T04:00:35;94396.56;;;3.63;100.00
12775;BME280;6451;42.630;23.382;2024-03-23T04:03:02;94450.88;;;3.83;100.00
12775;BME280;6451;42.630;23.382;2024-03-23T04:05:30;94445.97;;;3.76;100.00
12775;BME280;6451;42.630;23.382;2024-03-23T04:07:59;94453.88;;;3.81;100.00
12775;BME280;6451;42.630;23.382;2024-03-23T04:10:25;94454.09;;;3.85;100.00
12775;BME280;6451;42.630;23.382;2024-03-23T04:12:52;94450.00;;;3.87;100.00
12775;BME280;6451;42.630;23.382;2024-03-23T04:15:20;94457.75;;;3.75;100.00
12775;BME280;6451;42.630;23.382;2024-03-23T04:17:48;94456.97;;;3.88;100.00
12775;BME280;6451;42.630;23.382;2024-03-23T04:20:16;94394.22;;;3.48;100.00
12775;BME280;6451;42.630;23.382;2024-03-23T04:22:43;94396.59;;;3.50;100.00
12775;BME280;6451;42.630;23.382;2024-03-23T04:25:13;94456.69;;;3.49;100.00
12775;BME280;6451;42.630;23.382;2024-03-23T04:27:44;94459.97;;;3.73;100.00
12775;BME280;6451;42.630;23.382;2024-03-23T04:30:12;94380.81;;;3.07;100.00
12775;BME280;6451;42.630;23.382;2024-03-23T04:32:39;94391.03;;;3.19;100.00
12775;BME280;6451;42.630;23.382;2024-03-23T04:35:08;94452.22;;;3.58;100.00
12775;BME280;6451;42.630;23.382;2024-03-23T04:37:35;94469.09;;;3.72;100.00
12775;BME280;6451;42.630;23.382;2024-03-23T04:40:04;94459.56;;;3.52;100.00
12775;BME280;6451;42.630;23.382;2024-03-23T04:42:34;94373.97;;;3.15;100.00
12775;BME280;6451;42.630;23.382;2024-03-23T04:45:02;94405.81;;;3.57;100.00
12775;BME280;6451;42.630;23.382;2024-03-23T04:47:29;94468.06;;;3.96;100.00
12775;BME280;6451;42.630;23.382;2024-03-23T04:49:56;94469.19;;;3.95;100.00
12775;BME280;6451;42.630;23.382;2024-03-23T04:52:24;94423.59;;;3.67;100.00
12775;BME280;6451;42.630;23.382;2024-03-23T04:54:52;94445.53;;;3.83;100.00
12775;BME280;6451;42.630;23.382;2024-03-23T04:57:20;94478.19;;;4.12;100.00
12775;BME280;6451;42.630;23.382;2024-03-23T04:59:49;94476.69;;;4.06;100.00
12775;BME280;6451;42.630;23.382;2024-03-23T05:02:15;94451.31;;;3.76;100.00
12775;BME280;6451;42.630;23.382;2024-03-23T05:04:42;94468.66;;;4.06;100.00
12775;BME280;6451;42.630;23.382;2024-03-23T05:07:10;94478.84;;;4.32;100.00
12775;BME280;6451;42.630;23.382;2024-03-23T05:09:38;94428.88;;;4.08;100.00
12775;BME280;6451;42.630;23.382;2024-03-23T05:12:05;94451.00;;;4.28;100.00
12775;BME280;6451;42.630;23.382;2024-03-23T05:14:33;94292.28;;;3.48;100.00
12775;BME280;6451;42.630;23.382;2024-03-23T05:17:01;94419.19;;;4.43;100.00
12775;BME280;6451;42.630;23.382;2024-03-23T05:19:30;94430.66;;;4.80;100.00
12775;BME280;6451;42.630;23.382;2024-03-23T05:21:55;94458.00;;;5.05;100.00
12775;BME280;6451;42.630;23.382;2024-03-23T05:24:22;94401.13;;;4.89;100.00
12775;BME280;6451;42.630;23.382;2024-03-23T05:26:48;94397.56;;;5.02;100.00
12775;BME280;6451;42.630;23.382;2024-03-23T05:29:18;94444.13;;;5.51;100.00
12775;BME280;6451;42.630;23.382;2024-03-23T05:31:51;94329.91;;;4.69;100.00
12775;BME280;6451;42.630;23.382;2024-03-23T05:34:23;94461.06;;;5.51;100.00
12775;BME280;6451;42.630;23.382;2024-03-23T05:36:50;94398.16;;;5.21;100.00
12775;BME280;6451;42.630;23.382;2024-03-23T05:39:17;94457.69;;;5.77;100.00
12775;BME280;6451;42.630;23.382;2024-03-23T05:41:44;94462.22;;;5.59;99.26
12775;BME280;6451;42.630;23.382;2024-03-23T05:44:14;94377.16;;;5.01;100.00
12775;BME280;6451;42.630;23.382;2024-03-23T05:46:40;94464.09;;;5.58;100.00
12775;BME280;6451;42.630;23.382;2024-03-23T05:49:08;94459.81;;;5.97;100.00
12775;BME280;6451;42.630;23.382;2024-03-23T05:51:36;94408.38;;;5.59;100.00
12775;BME280;6451;42.630;23.382;2024-03-23T05:54:06;94460.34;;;6.25;100.00
12775;BME280;6451;42.630;23.382;2024-03-23T05:56:32;94409.38;;;5.72;100.00
12775;BME280;6451;42.630;23.382;2024-03-23T05:58:58;94466.38;;;6.22;100.00
12775;BME280;6451;42.630;23.382;2024-03-23T06:01:25;94458.94;;;6.45;100.00
12775;BME280;6451;42.630;23.382;2024-03-23T06:03:58;94457.97;;;6.67;100.00
12775;BME280;6451;42.630;23.382;2024-03-23T06:06:24;94382.03;;;5.96;99.79
12775;BME280;6451;42.630;23.382;2024-03-23T06:08:53;94361.78;;;6.07;100.00
12775;BME280;6451;42.630;23.382;2024-03-23T06:11:18;94459.84;;;7.01;95.70
12775;BME280;6451;42.630;23.382;2024-03-23T06:13:45;94387.25;;;6.61;91.78
12775;BME280;6451;42.630;23.382;2024-03-23T06:16:13;94381.72;;;6.49;89.37
12775;BME280;6451;42.630;23.382;2024-03-23T06:18:39;94401.03;;;6.68;90.07
12775;BME280;6451;42.630;23.382;2024-03-23T06:21:13;94435.25;;;6.94;89.86
12775;BME280;6451;42.630;23.382;2024-03-23T06:23:42;94366.63;;;6.65;89.32
12775;BME280;6451;42.630;23.382;2024-03-23T06:26:14;94455.69;;;7.21;89.88
12775;BME280;6451;42.630;23.382;2024-03-23T06:28:40;94445.38;;;7.61;88.95
12775;BME280;6451;42.630;23.382;2024-03-23T06:31:09;94406.09;;;7.34;86.08
12775;BME280;6451;42.630;23.382;2024-03-23T06:33:35;94456.88;;;7.41;84.87
12775;BME280;6451;42.630;23.382;2024-03-23T06:36:03;94407.66;;;7.44;84.61
12775;BME280;6451;42.630;23.382;2024-03-23T06:38:29;94398.34;;;7.62;84.44
12775;BME280;6451;42.630;23.382;2024-03-23T06:40:56;94445.47;;;7.73;84.70
12775;BME280;6451;42.630;23.382;2024-03-23T06:43:24;94375.16;;;7.32;85.29
12775;BME280;6451;42.630;23.382;2024-03-23T06:45:56;94459.63;;;7.70;87.14
12775;BME280;6451;42.630;23.382;2024-03-23T06:48:22;94459.75;;;7.83;86.89
12775;BME280;6451;42.630;23.382;2024-03-23T06:50:49;94417.41;;;7.57;87.77
12775;BME280;6451;42.630;23.382;2024-03-23T06:53:15;94339.88;;;7.37;86.61
12775;BME280;6451;42.630;23.382;2024-03-23T06:55:50;94457.50;;;8.14;84.98
12775;BME280;6451;42.630;23.382;2024-03-23T06:58:19;94452.91;;;8.35;84.41
12775;BME280;6451;42.630;23.382;2024-03-23T07:00:48;94439.88;;;8.38;84.65
12775;BME280;6451;42.630;23.382;2024-03-23T07:03:16;94445.34;;;8.50;83.53
12775;BME280;6451;42.630;23.382;2024-03-23T07:05:43;94329.88;;;7.88;82.43
12775;BME280;6451;42.630;23.382;2024-03-23T07:08:09;94443.25;;;8.88;80.88
12775;BME280;6451;42.630;23.382;2024-03-23T07:10:39;94429.69;;;9.09;79.22
12775;BME280;6451;42.630;23.382;2024-03-23T07:13:05;94428.38;;;9.28;79.24
12775;BME280;6451;42.630;23.382;2024-03-23T07:15:34;94420.34;;;9.19;77.50
12775;BME280;6451;42.630;23.382;2024-03-23T07:18:02;94366.59;;;8.84;76.22
12775;BME280;6451;42.630;23.382;2024-03-23T07:20:30;94426.53;;;9.07;76.19
12775;BME280;6451;42.630;23.382;2024-03-23T07:22:56;94429.09;;;9.37;76.43
12775;BME280;6451;42.630;23.382;2024-03-23T07:25:24;94429.38;;;9.23;75.89
12775;BME280;6451;42.630;23.382;2024-03-23T07:27:52;94386.56;;;9.37;74.75
12775;BME280;6451;42.630;23.382;2024-03-23T07:30:19;94415.22;;;9.87;72.53
12775;BME280;6451;42.630;23.382;2024-03-23T07:32:45;94386.75;;;9.81;71.28
12775;BME280;6451;42.630;23.382;2024-03-23T07:35:15;94414.88;;;9.64;72.28
12775;BME280;6451;42.630;23.382;2024-03-23T07:37:42;94400.69;;;9.67;71.97
12775;BME280;6451;42.630;23.382;2024-03-23T07:40:10;94408.22;;;9.98;71.02
12775;BME280;6451;42.630;23.382;2024-03-23T07:42:38;94363.09;;;9.54;72.07
12775;BME280;6451;42.630;23.382;2024-03-23T07:45:11;94391.53;;;9.84;71.79
12775;BME280;6451;42.630;23.382;2024-03-23T07:47:42;94267.28;;;9.09;71.20
12775;BME280;6451;42.630;23.382;2024-03-23T07:50:09;94355.38;;;9.92;70.37
12775;BME280;6451;42.630;23.382;2024-03-23T07:52:45;94406.16;;;10.32;68.25
12775;BME280;6451;42.630;23.382;2024-03-23T07:55:13;94404.97;;;9.68;69.20
12775;BME280;6451;42.630;23.382;2024-03-23T07:57:42;94313.06;;;9.27;68.54
12775;BME280;6451;42.630;23.382;2024-03-23T08:00:10;94381.66;;;10.16;68.03
12775;BME280;6451;42.630;23.382;2024-03-23T08:02:39;94406.34;;;10.51;66.93
12775;BME280;6451;42.630;23.382;2024-03-23T08:05:05;94383.03;;;10.50;66.23
12775;BME280;6451;42.630;23.382;2024-03-23T08:07:33;94375.94;;;9.93;67.58
12775;BME280;6451;42.630;23.382;2024-03-23T08:10:01;94408.31;;;10.14;68.17
12775;BME280;6451;42.630;23.382;2024-03-23T08:12:30;94384.25;;;10.37;67.02
12775;BME280;6451;42.630;23.382;2024-03-23T08:14:56;94399.06;;;10.27;67.42
12775;BME280;6451;42.630;23.382;2024-03-23T08:17:25;94410.06;;;10.59;65.48
12775;BME280;6451;42.630;23.382;2024-03-23T08:19:51;94404.97;;;10.85;65.16
12775;BME280;6451;42.630;23.382;2024-03-23T08:22:19;94393.19;;;10.94;63.87
12775;BME280;6451;42.630;23.382;2024-03-23T08:24:46;94396.44;;;10.71;63.87
12775;BME280;6451;42.630;23.382;2024-03-23T08:27:14;94390.22;;;10.99;63.54
12775;BME280;6451;42.630;23.382;2024-03-23T08:29:40;94378.16;;;11.12;62.71
12775;BME280;6451;42.630;23.382;2024-03-23T08:32:09;94323.47;;;10.82;63.19
12775;BME280;6451;42.630;23.382;2024-03-23T08:34:38;94386.84;;;11.49;61.84
12775;BME280;6451;42.630;23.382;2024-03-23T08:37:06;94385.25;;;11.17;62.38
12775;BME280;6451;42.630;23.382;2024-03-23T08:39:32;94313.13;;;10.88;62.33
12775;BME280;6451;42.630;23.382;2024-03-23T08:41:59;94388.69;;;11.61;61.04
12775;BME280;6451;42.630;23.382;2024-03-23T08:44:26;94382.38;;;11.73;60.44
12775;BME280;6451;42.630;23.382;2024-03-23T08:46:55;94376.81;;;11.81;60.55
12775;BME280;6451;42.630;23.382;2024-03-23T08:49:21;94369.06;;;11.20;61.04
12775;BME280;6451;42.630;23.382;2024-03-23T08:51:48;94307.69;;;11.03;61.22
12775;BME280;6451;42.630;23.382;2024-03-23T08:54:15;94352.41;;;11.69;59.81
12775;BME280;6451;42.630;23.382;2024-03-23T08:56:43;94323.31;;;11.54;59.26
12775;BME280;6451;42.630;23.382;2024-03-23T08:59:09;94353.53;;;12.00;59.43
12775;BME280;6451;42.630;23.382;2024-03-23T09:01:38;94360.22;;;12.21;58.00
12775;BME280;6451;42.630;23.382;2024-03-23T09:04:05;94354.56;;;12.49;56.19
12775;BME280;6451;42.630;23.382;2024-03-23T09:06:35;94336.69;;;12.68;56.07
12775;BME280;6451;42.630;23.382;2024-03-23T09:09:01;94339.91;;;12.73;59.23
12775;BME280;6451;42.630;23.382;2024-03-23T09:11:30;94337.53;;;12.91;55.96
12775;BME280;6451;42.630;23.382;2024-03-23T09:13:56;94323.63;;;12.96;55.62
12775;BME280;6451;42.630;23.382;2024-03-23T09:16:23;94331.19;;;12.87;55.08
12775;BME280;6451;42.630;23.382;2024-03-23T09:18:52;94317.06;;;13.01;56.00
12775;BME280;6451;42.630;23.382;2024-03-23T09:21:19;94310.47;;;13.02;56.91
12775;BME280;6451;42.630;23.382;2024-03-23T09:23:45;94313.72;;;13.11;56.17
12775;BME280;6451;42.630;23.382;2024-03-23T09:26:13;94290.75;;;13.08;55.32
12775;BME280;6451;42.630;23.382;2024-03-23T09:28:39;94299.56;;;13.02;56.32
12775;BME280;6451;42.630;23.382;2024-03-23T09:31:08;94300.34;;;13.22;54.56
12775;BME280;6451;42.630;23.382;2024-03-23T09:33:35;94286.84;;;13.09;54.26
12775;BME280;6451;42.630;23.382;2024-03-23T09:36:05;94302.69;;;13.23;53.38
12775;BME280;6451;42.630;23.382;2024-03-23T09:38:31;94283.44;;;13.13;52.66
12775;BME280;6451;42.630;23.382;2024-03-23T09:40:58;94278.59;;;13.25;52.45
12775;BME280;6451;42.630;23.382;2024-03-23T09:43:26;94291.84;;;13.50;53.42
12775;BME280;6451;42.630;23.382;2024-03-23T09:45:54;94241.34;;;13.33;53.46
12775;BME280;6451;42.630;23.382;2024-03-23T09:48:20;94275.97;;;13.82;53.26
12775;BME280;6451;42.630;23.382;2024-03-23T09:50:48;94264.81;;;13.94;52.72
12775;BME280;6451;42.630;23.382;2024-03-23T09:53:15;94274.34;;;14.04;52.24
12775;BME280;6451;42.630;23.382;2024-03-23T09:55:43;94268.38;;;13.68;52.45
12775;BME280;6451;42.630;23.382;2024-03-23T09:58:12;94221.38;;;13.78;52.23
12775;BME280;6451;42.630;23.382;2024-03-23T10:00:39;94263.41;;;14.04;52.54
12775;BME280;6451;42.630;23.382;2024-03-23T10:03:07;94263.97;;;14.16;49.56
12775;BME280;6451;42.630;23.382;2024-03-23T10:05:37;94255.84;;;14.24;49.15
12775;BME280;6451;42.630;23.382;2024-03-23T10:08:19;94217.84;;;14.08;48.40
12775;BME280;6451;42.630;23.382;2024-03-23T10:10:48;94230.59;;;14.30;49.11
12775;BME280;6451;42.630;23.382;2024-03-23T10:13:30;94241.50;;;14.30;48.49
12775;BME280;6451;42.630;23.382;2024-03-23T10:15:58;94227.09;;;14.30;47.72
12775;BME280;6451;42.630;23.382;2024-03-23T10:18:25;94237.38;;;14.43;48.48
12775;BME280;6451;42.630;23.382;2024-03-23T10:21:07;94206.78;;;14.27;49.29
12775;BME280;6451;42.630;23.382;2024-03-23T10:23:36;94229.31;;;14.51;48.72
12775;BME280;6451;42.630;23.382;2024-03-23T10:26:14;94224.34;;;14.30;48.32
12775;BME280;6451;42.630;23.382;2024-03-23T10:28:55;94213.78;;;14.58;47.63
12775;BME280;6451;42.630;23.382;2024-03-23T10:31:26;94222.19;;;14.80;46.76
12775;BME280;6451;42.630;23.382;2024-03-23T10:33:53;94209.41;;;14.50;47.45
12775;BME280;6451;42.630;23.382;2024-03-23T10:36:21;94210.28;;;14.61;46.40
12775;BME280;6451;42.630;23.382;2024-03-23T10:38:51;94156.03;;;14.19;46.22
12775;BME280;6451;42.630;23.382;2024-03-23T10:41:18;94196.53;;;14.91;45.55
12775;BME280;6451;42.630;23.382;2024-03-23T10:43:49;94197.50;;;15.13;45.58
12775;BME280;6451;42.630;23.382;2024-03-23T10:46:15;94192.97;;;14.84;44.94
12775;BME280;6451;42.630;23.382;2024-03-23T10:48:44;94185.28;;;14.96;44.89
12775;BME280;6451;42.630;23.382;2024-03-23T10:51:11;94146.00;;;14.71;44.47
12775;BME280;6451;42.630;23.382;2024-03-23T10:53:39;94156.06;;;15.04;43.83
12775;BME280;6451;42.630;23.382;2024-03-23T10:56:08;94168.28;;;15.24;43.71
12775;BME280;6451;42.630;23.382;2024-03-23T10:58:38;94160.88;;;15.25;43.90
12775;BME280;6451;42.630;23.382;2024-03-23T11:01:06;94136.69;;;15.27;44.21
12775;BME280;6451;42.630;23.382;2024-03-23T11:03:35;94150.13;;;15.53;43.40
12775;BME280;6451;42.630;23.382;2024-03-23T11:06:03;94148.09;;;15.36;42.94
12775;BME280;6451;42.630;23.382;2024-03-23T11:08:38;94131.34;;;15.48;43.61
12775;BME280;6451;42.630;23.382;2024-03-23T11:11:17;94130.75;;;15.73;41.17
12775;BME280;6451;42.630;23.382;2024-03-23T11:13:44;94121.97;;;15.42;40.45
12775;BME280;6451;42.630;23.382;2024-03-23T11:16:16;94117.81;;;15.70;39.87
12775;BME280;6451;42.630;23.382;2024-03-23T11:18:44;94105.69;;;15.71;39.62
12775;BME280;6451;42.630;23.382;2024-03-23T11:21:10;94112.06;;;16.00;39.48
12775;BME280;6451;42.630;23.382;2024-03-23T11:23:39;94102.78;;;16.26;39.68
12775;BME280;6451;42.630;23.382;2024-03-23T11:26:07;94103.13;;;16.17;39.29
12775;BME280;6451;42.630;23.382;2024-03-23T11:28:37;94105.91;;;16.35;38.92
12775;BME280;6451;42.630;23.382;2024-03-23T11:31:09;94088.59;;;15.92;39.33
12775;BME280;6451;42.630;23.382;2024-03-23T11:33:37;94094.47;;;15.97;39.09
12775;BME280;6451;42.630;23.382;2024-03-23T11:36:05;94089.44;;;16.24;38.73
12775;BME280;6451;42.630;23.382;2024-03-23T11:38:36;94087.50;;;16.25;39.63
12775;BME280;6451;42.630;23.382;2024-03-23T11:41:03;94082.84;;;16.36;39.99
12775;BME280;6451;42.630;23.382;2024-03-23T11:43:32;94073.50;;;16.76;39.70
12775;BME280;6451;42.630;23.382;2024-03-23T11:46:01;94069.56;;;16.59;39.63
12775;BME280;6451;42.630;23.382;2024-03-23T11:48:29;94070.38;;;16.74;39.04
12775;BME280;6451;42.630;23.382;2024-03-23T11:50:57;94054.28;;;16.55;39.87
12775;BME280;6451;42.630;23.382;2024-03-23T11:53:26;94030.81;;;16.57;39.46
12775;BME280;6451;42.630;23.382;2024-03-23T11:55:55;94049.59;;;16.91;39.14
12775;BME280;6451;42.630;23.382;2024-03-23T11:58:25;94028.84;;;16.61;38.70
12775;BME280;6451;42.630;23.382;2024-03-23T12:00:51;93988.97;;;16.35;39.11
12775;BME280;6451;42.630;23.382;2024-03-23T12:03:20;94029.25;;;16.71;39.10
12775;BME280;6451;42.630;23.382;2024-03-23T12:05:48;94033.56;;;16.97;39.03
12775;BME280;6451;42.630;23.382;2024-03-23T12:08:20;94019.81;;;17.11;38.75
12775;BME280;6451;42.630;23.382;2024-03-23T12:10:49;94019.09;;;16.89;38.52
12775;BME280;6451;42.630;23.382;2024-03-23T12:13:21;94009.25;;;17.13;38.72
12775;BME280;6451;42.630;23.382;2024-03-23T12:15:49;94005.28;;;17.21;38.63
12775;BME280;6451;42.630;23.382;2024-03-23T12:18:18;93990.78;;;17.24;38.16
12775;BME280;6451;42.630;23.382;2024-03-23T12:20:54;93993.50;;;17.31;38.16
12775;BME280;6451;42.630;23.382;2024-03-23T12:23:21;93997.78;;;17.39;38.00
12775;BME280;6451;42.630;23.382;2024-03-23T12:25:48;93994.31;;;17.24;37.65
12775;BME280;6451;42.630;23.382;2024-03-23T12:28:23;94000.97;;;17.27;37.91
12775;BME280;6451;42.630;23.382;2024-03-23T12:30:50;93991.91;;;17.37;38.14
12775;BME280;6451;42.630;23.382;2024-03-23T12:33:17;93988.00;;;17.31;37.15
12775;BME280;6451;42.630;23.382;2024-03-23T12:35:44;93976.22;;;17.48;38.15
12775;BME280;6451;42.630;23.382;2024-03-23T12:38:13;93953.38;;;17.66;36.94
12775;BME280;6451;42.630;23.382;2024-03-23T12:40:39;93933.88;;;17.49;36.73
12775;BME280;6451;42.630;23.382;2024-03-23T12:43:07;93953.13;;;17.39;36.81
12775;BME280;6451;42.630;23.382;2024-03-23T12:45:34;93970.88;;;17.02;37.00
12775;BME280;6451;42.630;23.382;2024-03-23T12:48:03;93972.03;;;17.19;37.35
12775;BME280;6451;42.630;23.382;2024-03-23T12:50:30;93969.31;;;17.01;37.73
12775;BME280;6451;42.630;23.382;2024-03-23T12:52:58;93957.94;;;17.10;37.50
12775;BME280;6451;42.630;23.382;2024-03-23T12:55:26;93954.44;;;17.02;37.56
12775;BME280;6451;42.630;23.382;2024-03-23T12:57:55;93950.84;;;17.19;37.13
12775;BME280;6451;42.630;23.382;2024-03-23T13:00:21;93905.13;;;16.91;37.41
12775;BME280;6451;42.630;23.382;2024-03-23T13:02:50;93939.84;;;17.30;36.88
12775;BME280;6451;42.630;23.382;2024-03-23T13:05:17;93931.97;;;17.32;36.02
12775;BME280;6451;42.630;23.382;2024-03-23T13:07:46;93937.00;;;17.48;36.18
12775;BME280;6451;42.630;23.382;2024-03-23T13:10:12;93914.00;;;17.28;34.80
12775;BME280;6451;42.630;23.382;2024-03-23T13:12:43;93932.34;;;17.41;34.26
12775;BME280;6451;42.630;23.382;2024-03-23T13:15:09;93920.13;;;17.57;34.14
12775;BME280;6451;42.630;23.382;2024-03-23T13:17:36;93918.16;;;17.57;35.41
12775;BME280;6451;42.630;23.382;2024-03-23T13:20:02;93896.84;;;17.83;35.14
12775;BME280;6451;42.630;23.382;2024-03-23T13:22:30;93902.19;;;18.04;36.94
12775;BME280;6451;42.630;23.382;2024-03-23T13:24:56;93877.00;;;17.57;34.34
12775;BME280;6451;42.630;23.382;2024-03-23T13:27:23;93906.69;;;17.80;34.06
12775;BME280;6451;42.630;23.382;2024-03-23T13:29:50;93904.94;;;18.04;33.31
12775;BME280;6451;42.630;23.382;2024-03-23T13:32:17;93878.31;;;17.97;33.49
12775;BME280;6451;42.630;23.382;2024-03-23T13:34:44;93891.56;;;18.10;33.45
12775;BME280;6451;42.630;23.382;2024-03-23T13:37:12;93892.00;;;18.01;31.95
12775;BME280;6451;42.630;23.382;2024-03-23T13:39:39;93881.38;;;18.10;30.44
12775;BME280;6451;42.630;23.382;2024-03-23T13:42:10;93890.34;;;18.14;30.14
12775;BME280;6451;42.630;23.382;2024-03-23T13:44:38;93884.84;;;18.14;29.74
12775;BME280;6451;42.630;23.382;2024-03-23T13:47:06;93890.50;;;17.93;28.95
12775;BME280;6451;42.630;23.382;2024-03-23T13:49:32;93876.81;;;17.86;28.40
12775;BME280;6451;42.630;23.382;2024-03-23T13:51:59;93884.91;;;18.07;28.72
12775;BME280;6451;42.630;23.382;2024-03-23T13:54:26;93872.09;;;17.90;28.76
12775;BME280;6451;42.630;23.382;2024-03-23T13:56:55;93873.59;;;17.98;28.35
12775;BME280;6451;42.630;23.382;2024-03-23T13:59:21;93862.72;;;17.87;28.20
12775;BME280;6451;42.630;23.382;2024-03-23T14:01:51;93863.59;;;17.70;28.49